Minot International Airport
KMOT : now visible

Airfield :











YOU CAN JOIN US ON...

 
LOGIN :

Register | Disclaimer

   EN    FR    IT 

 









Legend :    VFR   Marginal VFR   IFR   Intensive IFR   Very Intensive IFR
Visi :
Ceiling :
>= 8 km
>= 3000ft
5 to 8 km
1000 to 3000 ft
1500m to 5 km
500 to 1000 ft
800 to 1500m
200 to 500 ft
< 800m
< 200 ft
Symbols :   Thunderstorms  Fog  Heavy snow  Heavy precipitations  Wind > 20 kt






- Airport Elevation : 1716 ft
- IATA code : MOT


KMOT - Minot International

CURRENT METAR :
  • 200354Z AUTO 29014KT 10SM OVC033 00/M06 A3033 RMK AO2 SLP294 T00001061

EXPIRED METARs :
  • 200254Z 30015KT 10SM OVC033 00/M06 A3031 RMK AO2 PK WND 30026/0219 SLP289 60000 T00001061 53023
  • 200154Z 30016G25KT 10SM OVC040 01/M06 A3028 RMK AO2 PK WND 29028/0135 SLP279 T00061061
  • 200054Z 31015KT 10SM OVC042 02/M06 A3026 RMK AO2 PK WND 30028/0024 SNB26E45 SLP271 P0000 T00171056
  • 192354Z 32019G27KT 10SM BKN041 OVC050 02/M06 A3024 RMK AO2 PK WND 30030/2304 SNB2258E08B31E43 SLP264 P0000 60000 T00221061 10028 21011 51009

TAF KMOT
Valid from the 20 at 03:00 until the 21 at 00:00 UTC


200259Z 2003/2024 31015KT P6SM BKN040
FM200900 30011KT P6SM FEW200
KZMP FIR / North America



MET'MAP, your aeronautical weather chart ! - Copyright ORBIFLY December 2007 - Disclaimer

ORBIFLY MET'MAP TEAM :

Programming & Development : Alexandra Zaïnal
Original concept : Baudouin d'Aumeries
Technical & hardware support : Manuel Goepfert
Assistance : Marc-Olivier Méhu




SOURCES & CREDITS :

   NOAA       Earth
Advisory